»·PEaware :: WAT202 KLAS-KSAN

WAT202 :: KLAS-KSAN

FLIGHT INFORMATION

Flight Status: Arrived
Operator:
Walker Air Transport
More flights by this operator :: More flights under this callsign
Pilot: Nick L. (7253)
Aircraft: BOEING 737-800
(B738)
More flights by this aircraft type
Origin: KLAS Harry Reid Intl
United States
Destination: KSAN San Diego Intl-Lindbergh
United States
More flights between these airports :: More routes between these airports
Route: RADYR1 LVELL LUCKI1
File this flight plan on PilotEdge
Remarks: RMK / SIMBRIEF
Altitude:
(Current/Filed)
34,000ft
Speed:
(Current/Filed)
424kts
Departed: 28-Feb-21 01:18 PM
Arrived: 28-Feb-21 02:00 PM
Distance/Time
Traveled:
225nm/0:42
Distance/Time
To Go:
Arrived

Flight Plot

Page will automatically refresh every two minutes.

Flight plan parsing failed; only flown route is shown


Map Options




Map Legend


Flown Route
Filed Route
Departure Airport
Arrival Airport
Navaid (VOR, NDB)
Fix

Horizontal Profiles

Position Reports

Time Latitude Longitude Heading Altitude Ground
Speed
28-Feb-21 12:54 36.079856 -115.147102 55 2188ft 0kts
28-Feb-21 12:55 36.079856 -115.147102 55 2188ft 0kts
28-Feb-21 12:56 36.079856 -115.147102 55 2188ft 0kts
28-Feb-21 12:57 36.079856 -115.147102 55 2188ft 0kts
28-Feb-21 12:58 36.079856 -115.147102 55 2188ft 0kts
28-Feb-21 12:59 36.079856 -115.147102 55 2188ft 0kts
28-Feb-21 13:00 36.079856 -115.147102 55 2188ft 0kts
28-Feb-21 13:01 36.079856 -115.147102 55 2188ft 0kts
28-Feb-21 13:02 36.079856 -115.147102 55 2188ft 0kts
28-Feb-21 13:03 36.079856 -115.147102 55 2188ft 0kts
28-Feb-21 13:05 36.079856 -115.147102 55 2188ft 0kts
28-Feb-21 13:06 36.079856 -115.147102 55 2188ft 0kts
28-Feb-21 13:07 36.079856 -115.147102 55 2188ft 0kts
28-Feb-21 13:08 36.079782 -115.147695 115 2188ft 2kts
28-Feb-21 13:09 36.079958 -115.147881 155 2188ft 0kts
28-Feb-21 13:10 36.079958 -115.147881 155 2188ft 0kts
28-Feb-21 13:11 36.079958 -115.147881 155 2188ft 0kts
28-Feb-21 13:12 36.079772 -115.147777 155 2188ft 2kts
28-Feb-21 13:13 36.077871 -115.147531 239 2188ft 6kts
28-Feb-21 13:14 36.078051 -115.151542 269 2188ft 15kts
28-Feb-21 13:15 36.078041 -115.157183 270 2188ft 15kts
28-Feb-21 13:16 36.078040 -115.163114 268 2188ft 10kts
28-Feb-21 13:17 36.078117 -115.164760 295 2188ft 12kts
28-Feb-21 13:18 36.097137 -115.154355 25 2341ft 168kts
28-Feb-21 13:19 36.143445 -115.155296 294 4340ft 235kts
28-Feb-21 13:20 36.122543 -115.240507 250 7057ft 281kts
28-Feb-21 13:21 36.067592 -115.309253 203 10226ft 307kts
28-Feb-21 13:22 35.978934 -115.352314 202 12289ft 362kts
28-Feb-21 13:22 35.896191 -115.377950 183 14716ft 381kts
28-Feb-21 13:24 35.769098 -115.382621 181 17850ft 404kts
28-Feb-21 13:25 35.654632 -115.386309 180 20256ft 422kts
28-Feb-21 13:26 35.535138 -115.382298 175 22453ft 439kts
28-Feb-21 13:26 35.432489 -115.375106 175 24124ft 452kts
28-Feb-21 13:27 35.305234 -115.366122 174 25970ft 467kts
28-Feb-21 13:29 35.151705 -115.355285 174 27908ft 483kts
28-Feb-21 13:29 35.039199 -115.347429 174 29174ft 494kts
28-Feb-21 13:31 34.877058 -115.336187 175 30816ft 507kts
28-Feb-21 13:31 34.760842 -115.349373 195 32158ft 509kts
28-Feb-21 13:32 34.626571 -115.400656 200 33737ft 507kts
28-Feb-21 13:33 34.493049 -115.457368 201 34412ft 517kts
28-Feb-21 13:34 34.359141 -115.517219 207 34411ft 512kts
28-Feb-21 13:35 34.233038 -115.597216 204 34411ft 513kts
28-Feb-21 13:36 34.101736 -115.664065 203 34410ft 513kts
28-Feb-21 13:37 33.970139 -115.727648 202 34364ft 510kts
28-Feb-21 13:38 33.838652 -115.791387 203 34193ft 504kts
28-Feb-21 13:40 33.685685 -115.864909 202 29909ft 515kts
28-Feb-21 13:40 33.576905 -115.915674 202 27651ft 497kts
28-Feb-21 13:41 33.478604 -116.015942 237 26199ft 454kts
28-Feb-21 13:42 33.405030 -116.136410 239 23531ft 442kts
28-Feb-21 13:43 33.327088 -116.246531 221 20948ft 437kts
28-Feb-21 13:44 33.222612 -116.317089 208 18298ft 429kts
28-Feb-21 13:45 33.118022 -116.378490 208 15480ft 406kts
28-Feb-21 13:46 33.021322 -116.435094 211 13341ft 365kts
28-Feb-21 13:47 32.946943 -116.503232 223 11825ft 325kts
28-Feb-21 13:48 32.880393 -116.570403 223 10420ft 295kts
28-Feb-21 13:49 32.821038 -116.630205 223 9523ft 284kts
28-Feb-21 13:50 32.765866 -116.695190 240 8112ft 278kts
28-Feb-21 13:51 32.728938 -116.772642 243 6778ft 256kts
28-Feb-21 13:52 32.697904 -116.847506 252 5355ft 247kts
28-Feb-21 13:53 32.676643 -116.921091 260 4469ft 220kts
28-Feb-21 13:54 32.683700 -116.986217 288 3679ft 186kts
28-Feb-21 13:55 32.698317 -117.044612 288 2604ft 183kts
28-Feb-21 13:56 32.711252 -117.101226 286 1610ft 160kts
28-Feb-21 13:57 32.723645 -117.149025 289 822ft 151kts
28-Feb-21 13:58 32.734488 -117.193494 287 25ft 88kts
28-Feb-21 13:59 32.735599 -117.202163 195 24ft 0kts
28-Feb-21 14:00 32.734549 -117.203373 230 23ft 1kts
28-Feb-21 14:01 32.734521 -117.203413 230 23ft 0kts
28-Feb-21 14:02 32.734521 -117.203413 230 23ft 0kts
28-Feb-21 14:03 32.734521 -117.203413 230 23ft 0kts
28-Feb-21 14:04 32.734521 -117.203413 230 23ft 0kts
28-Feb-21 14:05 32.734521 -117.203413 230 23ft 0kts

Navigation Log

Ident Type
Flight plan parsing failed, navigation log unavailable